Time;durP1;ratioP1;P1;durP2;ratioP2;P2;SDS_P1;SDS_P2;PMS_P1;PMS_P2;Temp;Humidity;BMP_temperature;BMP_pressure;BME280_temperature;BME280_humidity;BME280_pressure;Samples;Min_cycle;Max_cycle;Signal;HPM_P1;HPM_P2
2022/09/15 11:26:43;;;;;;;13.60;3.42;;;;;;;14.35;95.13;95820.03;2096581;28;20878;-71
2022/09/15 11:27:58;;;;;;;14.40;4.00;;;;;;;14.41;94.26;95826.63;2079937;28;20200;-70
2022/09/15 11:29:09;;;;;;;6.32;4.18;;;;;;;14.31;94.33;95832.56;2082672;28;20216;-69
2022/09/15 11:30:23;;;;;;;6.78;2.90;;;;;;;14.26;95.51;95828.56;2072444;28;20254;-69
2022/09/15 11:31:38;;;;;;;7.07;2.92;;;;;;;14.33;93.95;95821.94;2072816;28;20646;-69
2022/09/15 11:58:08;;;;;;;8.02;2.90;;;;;;;14.75;92.20;95874.94;2085807;28;20553;-69
2022/09/15 11:59:26;;;;;;;5.57;3.25;;;;;;;14.79;93.12;95879.03;2078394;28;20264;-70
2022/09/15 12:00:28;;;;;;;8.85;3.55;;;;;;;14.85;91.84;95888.22;2072068;28;20230;-71
2022/09/15 12:01:42;;;;;;;5.05;2.90;;;;;;;14.44;93.42;95836.94;2075462;28;20454;-71
2022/09/15 12:03:02;;;;;;;6.55;3.22;;;;;;;14.62;92.24;95879.41;2075414;28;20254;-71
2022/09/15 12:04:11;;;;;;;5.55;3.10;;;;;;;14.75;91.51;95880.19;2073588;28;20220;-71
2022/09/15 12:05:45;;;;;;;3.70;2.53;;;;;;;14.81;90.95;95876.28;2072831;28;20209;-71
2022/09/15 12:07:04;;;;;;;8.13;3.10;;;;;;;14.99;88.83;95874.91;2075984;28;20205;-71
2022/09/15 12:08:32;;;;;;;8.05;3.00;;;;;;;14.83;89.45;95883.09;2073734;28;20205;-71
2022/09/15 12:27:21;;;;;;;17.77;3.70;;;;;;;15.42;87.48;95898.94;2084626;28;20571;-68
2022/09/15 12:28:22;;;;;;;11.43;3.92;;;;;;;15.77;87.46;95898.00;2085002;28;20205;-69
2022/09/15 12:29:26;;;;;;;6.95;3.80;;;;;;;16.06;86.64;95901.06;2084383;28;20227;-68
2022/09/15 12:30:41;;;;;;;12.30;2.85;;;;;;;16.10;85.35;95899.84;2084153;28;20283;-68
2022/09/15 12:31:44;;;;;;;7.50;2.70;;;;;;;15.87;85.19;95874.47;2078871;28;20239;-68
2022/09/15 12:32:46;;;;;;;11.85;3.08;;;;;;;16.11;81.54;95882.22;2083775;28;20642;-68
2022/09/15 12:34:09;;;;;;;9.00;3.53;;;;;;;16.21;80.81;95898.16;2079865;28;20284;-68
2022/09/15 12:35:14;;;;;;;4.80;2.92;;;;;;;15.64;84.00;95898.97;2081112;28;20892;-68
2022/09/15 12:36:38;;;;;;;7.18;3.50;;;;;;;16.10;83.43;95893.72;2082752;28;20246;-68
2022/09/15 12:37:56;;;;;;;4.85;3.38;;;;;;;16.06;83.20;95897.56;2083175;28;20287;-67
2022/09/15 12:38:59;;;;;;;12.77;3.17;;;;;;;15.95;85.53;95885.25;2086115;28;20299;-70
2022/09/15 12:40:04;;;;;;;7.03;3.33;;;;;;;16.04;84.67;95891.59;2087241;28;20288;-71
2022/09/15 12:41:09;;;;;;;6.82;3.50;;;;;;;16.45;82.97;95893.56;2082828;28;20189;-72
2022/09/15 12:42:20;;;;;;;6.82;3.70;;;;;;;16.84;82.49;95902.81;2082841;28;20201;-71
2022/09/15 12:43:23;;;;;;;5.85;3.35;;;;;;;16.53;82.21;95874.50;2083871;28;20284;-71
2022/09/15 12:44:40;;;;;;;5.45;3.40;;;;;;;16.38;83.36;95900.28;2082456;28;20324;-72
2022/09/15 12:45:54;;;;;;;5.90;3.05;;;;;;;16.49;80.48;95888.88;2083923;28;20234;-71
2022/09/15 12:52:06;;;;;;;7.00;2.63;;;;;;;17.66;77.50;95910.09;2081447;28;20212;-68
2022/09/15 12:53:22;;;;;;;10.63;2.80;;;;;;;17.49;77.88;95900.13;2085400;28;20204;-69
2022/09/15 12:54:29;;;;;;;5.85;2.63;;;;;;;17.49;78.84;95908.88;2084102;28;20227;-68
2022/09/15 12:55:36;;;;;;;4.43;2.53;;;;;;;17.40;80.24;95907.84;2084059;28;20900;-69
2022/09/15 12:56:37;;;;;;;8.27;3.05;;;;;;;16.97;80.72;95864.75;2083264;28;20247;-68
2022/09/15 12:57:39;;;;;;;9.40;2.80;;;;;;;16.95;80.46;95911.53;2085124;28;20659;-69
2022/09/15 12:58:47;;;;;;;9.75;3.20;;;;;;;16.98;81.03;95900.72;2081119;28;20312;-69
2022/09/15 12:59:48;;;;;;;5.78;2.53;;;;;;;16.93;81.46;95902.91;2086915;28;20722;-68
2022/09/15 13:00:50;;;;;;;6.22;3.10;;;;;;;16.44;82.83;95899.81;2086430;28;20619;-68
2022/09/15 13:18:28;;;;;;;8.07;5.03;;;;;;;15.77;84.96;95901.50;2101540;27;20565;-71
2022/09/15 13:19:40;;;;;;;8.57;4.63;;;;;;;16.07;86.61;95925.56;2092888;28;20251;-72
2022/09/15 13:20:53;;;;;;;11.93;5.38;;;;;;;16.04;84.63;95910.84;2080286;28;20197;-74
2022/09/15 13:35:42;;;;;;;9.90;5.23;;;;;;;16.54;83.77;95926.22;2065592;27;1277845;-70
2022/09/15 13:37:12;;;;;;;8.40;5.00;;;;;;;16.70;82.26;95925.03;2110101;28;20663;-70
2022/09/15 13:38:57;;;;;;;15.90;5.90;;;;;;;16.59;83.74;95920.59;2106910;28;20194;-71
2022/09/15 13:40:26;;;;;;;9.80;5.20;;;;;;;16.92;81.23;95927.59;2081798;28;20331;-71
2022/09/15 13:41:52;;;;;;;9.65;4.80;;;;;;;16.89;81.46;95916.47;2082984;28;20687;-71
2022/09/15 13:43:20;;;;;;;9.07;5.45;;;;;;;16.74;82.39;95916.72;2085686;28;20232;-71
2022/09/15 13:55:44;;;;;;;11.15;7.03;;;;;;;16.19;83.25;95921.13;2091305;28;20547;-68
2022/09/15 13:56:46;;;;;;;16.38;7.72;;;;;;;16.77;83.63;95919.13;2092869;28;20345;-68
2022/09/15 13:57:51;;;;;;;14.80;7.57;;;;;;;17.25;79.91;95920.50;2091349;28;20216;-68
2022/09/15 14:04:25;;;;;;;12.23;7.28;;;;;;;18.42;74.87;95932.69;2083287;28;20702;-69
2022/09/15 14:05:32;;;;;;;10.30;7.00;;;;;;;18.34;75.47;95927.25;2076458;28;20295;-69
2022/09/15 14:06:39;;;;;;;11.88;6.38;;;;;;;19.25;72.58;95933.25;2077247;28;20231;-70
2022/09/15 14:07:41;;;;;;;8.43;6.10;;;;;;;18.97;71.86;95924.34;2074959;28;20328;-69
2022/09/15 14:08:46;;;;;;;18.42;6.55;;;;;;;19.22;71.57;95927.41;2076335;28;20201;-68
2022/09/15 14:09:48;;;;;;;8.55;6.15;;;;;;;19.61;70.84;95926.53;2084062;28;20597;-69
2022/09/15 14:11:03;;;;;;;9.30;5.25;;;;;;;19.90;69.30;95916.72;2083199;28;20659;-68
2022/09/15 14:12:10;;;;;;;7.43;5.45;;;;;;;19.92;67.61;95926.34;2084884;28;20310;-69
2022/09/15 14:13:15;;;;;;;8.95;5.22;;;;;;;19.47;66.98;95899.50;2084442;28;20197;-68
2022/09/15 14:14:25;;;;;;;9.07;5.20;;;;;;;18.79;69.56;95916.19;2084637;28;20420;-68
2022/09/15 14:15:28;;;;;;;9.73;6.10;;;;;;;18.54;71.11;95920.22;2086267;28;20232;-68
2022/09/15 14:16:34;;;;;;;11.30;5.78;;;;;;;18.49;71.45;95912.69;2076183;28;20228;-69
2022/09/15 14:17:43;;;;;;;12.10;5.72;;;;;;;18.67;70.73;95917.31;2077813;28;20713;-69
2022/09/15 14:18:45;;;;;;;8.23;5.20;;;;;;;19.11;70.47;95930.19;2083751;28;20685;-69
2022/09/15 14:19:49;;;;;;;8.32;5.05;;;;;;;19.88;69.12;95921.34;2075924;28;20277;-69
2022/09/15 14:21:02;;;;;;;9.27;4.85;;;;;;;19.92;66.48;95913.09;2075863;28;20280;-69
2022/09/15 14:22:19;;;;;;;9.23;5.55;;;;;;;19.67;67.17;95915.38;2086127;28;20283;-68
2022/09/15 14:23:20;;;;;;;10.43;5.10;;;;;;;19.74;65.41;95917.31;2077406;28;20311;-69
2022/09/15 14:24:26;;;;;;;7.07;4.70;;;;;;;19.77;65.15;95920.63;2076461;28;20437;-68
2022/09/15 14:25:29;;;;;;;7.65;4.65;;;;;;;20.29;66.08;95915.75;2083513;28;20196;-68
2022/09/15 14:26:34;;;;;;;7.10;4.63;;;;;;;20.00;66.10;95903.44;2082907;28;21281;-68
2022/09/15 14:27:41;;;;;;;10.85;4.72;;;;;;;19.70;64.84;95918.56;2084394;28;20227;-68
2022/09/15 14:28:52;;;;;;;11.40;4.60;;;;;;;19.53;65.03;95911.38;2082257;28;20200;-68
2022/09/15 14:29:56;;;;;;;7.50;4.10;;;;;;;19.58;67.80;95912.59;2084841;28;20231;-68
2022/09/15 14:31:00;;;;;;;9.55;3.40;;;;;;;19.08;68.52;95912.78;2083522;28;20323;-68
2022/09/15 14:32:05;;;;;;;6.65;3.80;;;;;;;19.64;67.36;95911.19;2077350;28;20189;-67
2022/09/15 14:33:15;;;;;;;8.98;4.10;;;;;;;19.72;64.02;95906.00;2075549;28;20205;-68
2022/09/15 14:34:20;;;;;;;6.53;3.67;;;;;;;19.37;65.84;95910.09;2083936;28;20319;-66
2022/09/15 14:35:33;;;;;;;7.53;3.45;;;;;;;19.57;64.30;95918.84;2082345;28;20258;-68
2022/09/15 14:36:34;;;;;;;8.93;3.65;;;;;;;19.93;64.18;95918.25;2085213;28;20671;-68
2022/09/15 14:37:36;;;;;;;8.77;3.72;;;;;;;20.01;64.16;95902.47;2076887;28;20608;-68
2022/09/15 14:38:41;;;;;;;7.32;3.63;;;;;;;20.45;63.60;95909.78;2076206;28;20284;-68
2022/09/15 14:39:55;;;;;;;8.73;3.67;;;;;;;20.18;63.62;95914.13;2083285;28;20201;-68
2022/09/15 14:40:58;;;;;;;6.82;3.38;;;;;;;20.08;62.92;95913.31;2084620;28;20205;-68
2022/09/15 14:42:19;;;;;;;8.90;3.25;;;;;;;20.09;63.76;95911.50;2082298;28;20350;-68
2022/09/15 14:43:34;;;;;;;5.63;3.33;;;;;;;20.19;63.56;95909.66;2083038;28;20200;-68
2022/09/15 14:44:40;;;;;;;9.05;3.30;;;;;;;20.24;63.33;95896.81;2083318;28;20244;-68
2022/09/15 14:46:12;;;;;;;7.90;3.80;;;;;;;20.01;64.20;95907.78;2080962;28;20846;-67
2022/09/15 14:47:18;;;;;;;4.78;2.88;;;;;;;20.11;63.77;95913.00;2083749;28;20201;-67
2022/09/15 14:48:26;;;;;;;5.32;2.88;;;;;;;19.93;64.39;95917.41;2085351;28;20189;-67
2022/09/15 14:49:28;;;;;;;7.88;3.10;;;;;;;19.73;64.77;95914.78;2083796;28;20221;-67
2022/09/15 14:50:33;;;;;;;5.40;2.75;;;;;;;19.24;63.59;95910.41;2082857;28;20300;-67
2022/09/15 14:51:35;;;;;;;5.13;2.63;;;;;;;19.02;64.42;95919.47;2083286;28;20228;-68
2022/09/15 14:52:50;;;;;;;5.75;2.90;;;;;;;19.24;64.59;95912.22;2082996;28;20317;-67
2022/09/15 14:53:56;;;;;;;4.68;2.58;;;;;;;19.73;64.79;95913.00;2084802;28;20307;-67
2022/09/15 14:55:06;;;;;;;7.15;2.92;;;;;;;20.05;63.79;95914.44;2082782;28;20540;-67
2022/09/15 14:56:13;;;;;;;9.35;3.20;;;;;;;20.52;62.97;95913.53;2082876;28;20291;-68
2022/09/15 14:57:21;;;;;;;6.68;2.88;;;;;;;20.52;62.71;95916.19;2084963;28;20280;-67
2022/09/15 14:58:33;;;;;;;5.68;2.72;;;;;;;20.30;63.51;95924.53;2084473;28;20741;-68
2022/09/15 14:59:48;;;;;;;13.57;3.03;;;;;;;20.99;62.55;95904.59;2082956;28;20287;-67
2022/09/15 15:01:08;;;;;;;7.53;2.80;;;;;;;21.03;62.28;95913.09;2086157;28;20207;-66
2022/09/15 15:02:51;;;;;;;6.50;2.85;;;;;;;21.20;60.43;95920.22;2085743;28;20196;-66
2022/09/15 15:04:01;;;;;;;3.63;2.22;;;;;;;21.13;58.44;95923.66;2080820;28;20838;-66
2022/09/15 15:05:16;;;;;;;4.70;2.22;;;;;;;20.85;59.81;95913.09;2085667;28;20279;-66
2022/09/15 15:06:37;;;;;;;5.43;2.38;;;;;;;20.90;59.35;95916.13;2081260;28;20189;-66
2022/09/15 15:07:39;;;;;;;4.28;1.80;;;;;;;20.86;58.56;95914.75;2077550;28;20251;-66
2022/09/15 15:08:48;;;;;;;7.00;2.47;;;;;;;20.47;59.10;95899.06;2076851;28;20660;-66
2022/09/15 15:10:03;;;;;;;3.42;2.30;;;;;;;20.51;59.26;95921.66;2076354;28;20292;-66
2022/09/15 15:11:07;;;;;;;5.43;2.40;;;;;;;20.31;59.60;95911.13;2077831;28;20245;-66
2022/09/15 15:12:33;;;;;;;8.25;2.65;;;;;;;20.11;61.82;95920.16;2075368;28;20193;-66
2022/09/15 15:13:39;;;;;;;8.43;2.20;;;;;;;20.55;60.60;95899.13;2077353;28;20221;-67
2022/09/15 15:14:41;;;;;;;4.57;2.20;;;;;;;20.35;60.76;95912.50;2079703;28;20197;-67
2022/09/15 15:15:43;;;;;;;9.25;2.35;;;;;;;19.88;62.32;95925.78;2078778;28;20268;-67
2022/09/15 15:16:56;;;;;;;4.20;2.35;;;;;;;20.18;62.22;95926.53;2077514;28;20197;-67
2022/09/15 15:17:58;;;;;;;6.32;2.75;;;;;;;19.83;64.46;95920.94;2080072;28;20569;-67
2022/09/15 15:19:00;;;;;;;5.07;2.17;;;;;;;19.54;63.32;95918.31;2080084;28;20225;-66
2022/09/15 15:20:05;;;;;;;4.15;2.00;;;;;;;19.22;63.13;95928.25;2080710;28;20220;-67
2022/09/15 15:21:32;;;;;;;3.78;2.10;;;;;;;18.99;64.99;95918.91;2079969;28;20209;-67
2022/09/15 15:22:34;;;;;;;9.50;2.65;;;;;;;19.46;64.35;95910.25;2088597;28;20250;-67
2022/09/15 15:23:43;;;;;;;4.57;2.80;;;;;;;19.81;64.23;95922.03;2088175;28;20287;-67
2022/09/15 15:24:50;;;;;;;11.95;2.10;;;;;;;20.17;64.01;95916.91;2080064;28;20524;-67
2022/09/15 15:25:52;;;;;;;15.70;3.20;;;;;;;20.55;63.91;95923.81;2077998;28;20225;-67
2022/09/15 15:26:54;;;;;;;5.28;1.80;;;;;;;20.85;62.45;95923.72;2077573;28;20292;-67
2022/09/15 15:27:57;;;;;;;5.95;2.53;;;;;;;20.91;61.04;95890.41;2079969;28;20652;-66
2022/09/15 15:28:59;;;;;;;6.60;2.10;;;;;;;20.26;60.17;95912.56;2080557;28;20244;-67
2022/09/15 15:30:29;;;;;;;5.22;2.03;;;;;;;20.12;59.82;95919.16;2078713;28;20236;-67
2022/09/15 15:31:31;;;;;;;5.50;2.30;;;;;;;19.52;60.39;95930.88;2078025;28;20862;-68
2022/09/15 15:39:06;;;;;;;8.23;2.28;;;;;;;21.07;59.67;95916.28;2077515;28;20225;-66
2022/09/15 15:40:19;;;;;;;5.30;2.25;;;;;;;20.93;58.87;95931.72;2078509;28;20255;-67
2022/09/15 15:41:24;;;;;;;5.00;2.10;;;;;;;20.80;59.53;95925.97;2077979;28;20201;-67
2022/09/15 15:42:27;;;;;;;6.38;2.15;;;;;;;20.90;60.32;95913.47;2079654;28;20629;-66
2022/09/15 15:43:29;;;;;;;4.45;2.40;;;;;;;21.08;59.01;95932.06;2077873;28;20724;-67
2022/09/15 15:44:31;;;;;;;5.55;2.33;;;;;;;20.30;61.54;95930.69;2078357;28;20228;-66
2022/09/15 15:45:45;;;;;;;3.33;1.98;;;;;;;20.00;62.60;95929.13;2078721;28;20284;-67
2022/09/15 15:46:55;;;;;;;4.72;1.70;;;;;;;19.96;62.78;95931.22;2079325;28;20630;-66
2022/09/15 15:47:56;;;;;;;13.05;2.63;;;;;;;19.89;60.79;95916.88;2076357;28;20239;-66
2022/09/15 15:48:58;;;;;;;3.25;2.08;;;;;;;19.75;62.54;95897.75;2077130;28;20231;-66
2022/09/15 15:50:10;;;;;;;4.80;1.65;;;;;;;20.42;62.51;95930.47;2076948;28;20201;-67
2022/09/15 15:51:14;;;;;;;6.82;2.20;;;;;;;20.70;60.84;95924.19;2077644;28;20205;-66
2022/09/15 15:52:20;;;;;;;5.13;2.17;;;;;;;20.96;60.95;95933.25;2080117;28;20754;-67
2022/09/15 15:53:23;;;;;;;4.30;1.80;;;;;;;20.99;60.00;95931.13;2079994;28;20271;-66
2022/09/15 15:54:25;;;;;;;5.70;2.25;;;;;;;21.03;60.68;95939.63;2078103;28;20252;-67
2022/09/15 15:55:36;;;;;;;4.47;2.00;;;;;;;20.80;61.23;95931.28;2077358;28;20267;-66
2022/09/15 15:56:37;;;;;;;6.70;2.53;;;;;;;20.89;59.64;95927.72;2080336;28;20215;-66
2022/09/15 15:57:39;;;;;;;3.83;2.17;;;;;;;21.27;59.33;95939.03;2080550;28;20220;-66
2022/09/15 15:58:41;;;;;;;5.35;1.80;;;;;;;21.50;59.91;95926.09;2079345;28;20236;-66
2022/09/15 15:59:42;;;;;;;7.68;2.10;;;;;;;21.26;57.80;95928.56;2077407;28;20197;-66
2022/09/15 16:00:55;;;;;;;10.07;2.92;;;;;;;21.28;58.72;95924.78;2076948;28;20671;-66
2022/09/15 16:01:57;;;;;;;8.50;2.05;;;;;;;21.30;58.09;95908.69;2078265;28;20235;-66
2022/09/15 16:02:59;;;;;;;3.55;2.20;;;;;;;21.52;57.75;95932.09;2078855;28;20208;-66
2022/09/15 16:04:00;;;;;;;4.50;2.15;;;;;;;20.64;58.65;95916.81;2077101;28;20224;-66
2022/09/15 16:05:05;;;;;;;6.22;2.40;;;;;;;21.22;58.40;95925.38;2077879;28;20339;-66
2022/09/15 16:06:09;;;;;;;4.13;2.35;;;;;;;21.40;57.67;95927.19;2078291;28;20228;-66
2022/09/15 16:07:16;;;;;;;7.80;2.65;;;;;;;21.17;56.78;95925.00;2078377;28;20679;-66
2022/09/15 16:08:30;;;;;;;5.97;2.58;;;;;;;21.18;58.35;95927.50;2088132;28;20203;-67
2022/09/15 16:09:32;;;;;;;4.63;2.53;;;;;;;21.01;57.14;95923.88;2069953;28;20259;-68
2022/09/15 16:10:41;;;;;;;4.90;2.58;;;;;;;20.37;57.55;95923.78;2077561;28;20671;-67
2022/09/15 16:11:44;;;;;;;5.63;2.50;;;;;;;20.01;59.88;95928.13;2078484;28;20231;-68
2022/09/15 16:12:45;;;;;;;4.68;2.70;;;;;;;19.63;61.16;95920.13;2079484;28;20682;-68
2022/09/15 16:13:47;;;;;;;6.85;3.00;;;;;;;19.68;61.04;95931.13;2077040;28;20279;-68
2022/09/15 16:26:17;;;;;;;8.75;2.72;;;;;;;19.07;62.16;95937.56;2077849;28;20181;-67
2022/09/15 16:27:18;;;;;;;11.05;2.53;;;;;;;18.93;62.51;95910.56;2079269;28;20219;-68
2022/09/15 16:28:20;;;;;;;5.20;2.63;;;;;;;18.98;62.44;95926.00;2076493;28;20645;-67
2022/09/15 16:29:26;;;;;;;6.03;2.83;;;;;;;19.08;63.43;95939.22;2076576;28;20307;-67
2022/09/15 16:30:29;;;;;;;10.63;2.60;;;;;;;18.82;65.58;95915.13;2076603;28;20235;-69
2022/09/15 16:31:32;;;;;;;4.05;2.58;;;;;;;19.08;64.74;95937.44;2078729;28;20241;-68
2022/09/15 16:32:33;;;;;;;5.90;2.65;;;;;;;18.92;63.47;95932.69;2077590;28;20197;-67
2022/09/15 16:33:35;;;;;;;5.57;2.10;;;;;;;18.78;64.18;95938.34;2077899;28;20205;-67
2022/09/15 16:34:38;;;;;;;4.80;2.90;;;;;;;18.66;64.02;95936.78;2078625;28;20197;-68
2022/09/15 16:35:51;;;;;;;4.18;2.28;;;;;;;18.46;66.55;95943.81;2078078;28;20292;-68
2022/09/15 16:36:53;;;;;;;5.18;2.42;;;;;;;18.33;66.92;95944.88;2078066;28;20240;-68
2022/09/15 16:37:54;;;;;;;6.88;2.25;;;;;;;18.09;68.30;95935.50;2078447;28;20292;-67
2022/09/15 16:38:56;;;;;;;6.28;3.05;;;;;;;17.93;69.17;95943.91;2078061;28;20309;-68
2022/09/15 16:39:57;;;;;;;8.13;2.80;;;;;;;17.75;70.64;95932.22;2077139;28;20233;-68
2022/09/15 16:40:59;;;;;;;9.23;2.75;;;;;;;17.89;69.26;95946.88;2077672;28;20292;-67
2022/09/15 16:42:00;;;;;;;5.75;2.40;;;;;;;17.72;69.35;95946.50;2076997;28;20260;-69
2022/09/15 16:43:03;;;;;;;5.45;2.75;;;;;;;17.36;67.71;95932.81;2079333;28;20285;-69
2022/09/15 16:44:16;;;;;;;5.45;2.83;;;;;;;16.93;69.40;95905.53;2080060;28;20248;-69
2022/09/15 16:45:30;;;;;;;6.10;2.92;;;;;;;16.94;69.83;95941.50;2075288;28;20296;-69
2022/09/15 16:46:38;;;;;;;5.75;2.85;;;;;;;16.75;70.48;95941.31;2076983;28;20227;-69
2022/09/15 16:47:44;;;;;;;5.63;3.03;;;;;;;16.72;71.58;95950.28;2079194;28;20319;-69
2022/09/15 16:48:48;;;;;;;6.40;2.95;;;;;;;16.67;71.63;95960.38;2079819;28;20298;-69
2022/09/15 16:49:51;;;;;;;5.35;2.60;;;;;;;16.72;71.58;95952.06;2074124;28;20207;-69
2022/09/15 16:50:52;;;;;;;5.35;2.78;;;;;;;16.72;73.29;95950.28;2079521;28;20605;-69
2022/09/15 16:52:14;;;;;;;6.97;2.38;;;;;;;16.51;72.01;95949.38;2079538;28;20205;-68
2022/09/15 16:53:21;;;;;;;8.32;2.75;;;;;;;16.56;71.94;95950.69;2079598;28;20835;-69
2022/09/15 16:54:22;;;;;;;9.40;3.20;;;;;;;16.51;72.47;95949.38;2078597;28;20559;-69
2022/09/15 16:55:26;;;;;;;4.40;2.80;;;;;;;16.54;72.65;95957.84;2075355;28;20299;-69
2022/09/15 16:56:28;;;;;;;7.63;2.60;;;;;;;16.48;72.74;95953.94;2080070;28;20304;-68
2022/09/15 16:57:29;;;;;;;7.78;2.65;;;;;;;16.37;73.87;95955.75;2079199;28;20240;-68
2022/09/15 16:58:31;;;;;;;7.80;2.95;;;;;;;16.45;73.68;95951.50;2075931;28;20679;-69
2022/09/15 16:59:32;;;;;;;6.93;3.08;;;;;;;16.51;73.21;95959.91;2079498;28;20607;-69
